createdAt,value
2022-10-28T00:01:09.397Z,63.23
2022-10-28T00:03:41.722Z,63.30
2022-10-28T00:06:14.465Z,63.58
2022-10-28T00:08:41.435Z,63.33
2022-10-28T00:11:12.377Z,63.55
2022-10-28T00:13:39.369Z,63.45
2022-10-28T00:16:24.830Z,63.74
2022-10-28T00:18:53.869Z,63.50
2022-10-28T00:21:24.216Z,63.64
2022-10-28T00:23:51.228Z,63.38
2022-10-28T00:26:20.709Z,63.63
2022-10-28T00:29:00.634Z,63.42
2022-10-28T00:31:29.600Z,63.80
2022-10-28T00:33:58.144Z,63.77
2022-10-28T00:36:31.843Z,63.42
2022-10-28T00:38:59.327Z,63.56
2022-10-28T00:41:30.982Z,63.62
2022-10-28T00:44:20.993Z,63.38
2022-10-28T00:46:50.502Z,63.53
2022-10-28T00:49:24.081Z,63.51
2022-10-28T00:51:56.379Z,63.49
2022-10-28T00:54:23.782Z,63.58
2022-10-28T00:56:55.081Z,63.48
2022-10-28T00:59:25.187Z,63.93
2022-10-28T01:01:52.428Z,63.63
2022-10-28T01:04:20.872Z,63.87
2022-10-28T01:06:48.361Z,63.73
2022-10-28T01:09:15.076Z,63.73
2022-10-28T01:11:53.416Z,63.33
2022-10-28T01:14:38.407Z,63.50
2022-10-28T01:17:26.682Z,63.34
2022-10-28T01:20:46.356Z,63.47
2022-10-28T01:23:33.612Z,63.84
2022-10-28T01:26:12.420Z,63.73
2022-10-28T01:28:59.685Z,64.11
2022-10-28T01:31:35.341Z,63.64
2022-10-28T01:34:20.307Z,64.13
2022-10-28T01:36:53.147Z,64.05
2022-10-28T01:39:28.663Z,63.52
2022-10-28T01:41:59.004Z,63.59
2022-10-28T01:44:39.493Z,63.97
2022-10-28T01:47:16.241Z,63.94
2022-10-28T01:50:03.557Z,63.75
2022-10-28T01:52:32.245Z,63.91
2022-10-28T01:55:23.423Z,64.18
2022-10-28T01:57:52.721Z,63.89
2022-10-28T02:00:19.566Z,63.90
2022-10-28T02:02:48.116Z,63.56
2022-10-28T02:05:33.040Z,63.89
2022-10-28T02:08:17.434Z,63.69
2022-10-28T02:11:30.284Z,63.86
2022-10-28T02:14:21.957Z,63.88
2022-10-28T02:16:57.548Z,64.05
2022-10-28T02:19:39.982Z,64.19
2022-10-28T02:22:15.313Z,64.03
2022-10-28T02:25:09.426Z,63.82
2022-10-28T02:27:38.897Z,63.99
2022-10-28T02:30:07.936Z,63.99
2022-10-28T02:32:45.206Z,64.07
2022-10-28T02:35:17.587Z,64.29
2022-10-28T02:37:46.729Z,63.86
2022-10-28T02:40:16.578Z,64.15
2022-10-28T02:42:48.757Z,64.09
2022-10-28T02:45:22.351Z,64.22
2022-10-28T02:47:57.268Z,64.02
2022-10-28T02:50:30.176Z,63.99
2022-10-28T02:53:00.251Z,64.30
2022-10-28T02:55:36.200Z,64.49
2022-10-28T02:58:03.354Z,64.23
2022-10-28T03:00:30.111Z,64.19
2022-10-28T03:02:57.018Z,64.49
2022-10-28T03:05:23.825Z,64.52
2022-10-28T03:07:53.270Z,64.45
2022-10-28T03:10:20.295Z,64.45
2022-10-28T03:12:47.012Z,64.46
2022-10-28T03:15:13.768Z,64.26
2022-10-28T03:17:40.602Z,64.57
2022-10-28T03:20:07.987Z,64.50
2022-10-28T03:22:34.532Z,64.31
2022-10-28T03:25:01.110Z,64.37
2022-10-28T03:27:27.758Z,64.34
2022-10-28T03:29:54.411Z,64.15
2022-10-28T03:34:52.764Z,64.65
2022-10-28T03:37:19.613Z,64.36
2022-10-28T03:39:46.402Z,64.63
2022-10-28T03:42:13.324Z,64.44
2022-10-28T03:44:40.049Z,64.50
2022-10-28T03:47:06.734Z,64.34
2022-10-28T03:49:33.365Z,64.66
2022-10-28T03:51:59.981Z,64.23
2022-10-28T03:54:26.526Z,64.69
2022-10-28T03:56:53.136Z,64.55
2022-10-28T03:59:20.400Z,64.79
2022-10-28T04:01:47.272Z,64.27
2022-10-28T04:04:13.867Z,64.42
2022-10-28T04:06:40.429Z,64.43
2022-10-28T04:09:07.057Z,64.58
2022-10-28T04:11:33.666Z,64.64
2022-10-28T04:14:00.248Z,64.79
2022-10-28T04:16:26.882Z,65.07
2022-10-28T04:18:53.604Z,64.50
2022-10-28T04:21:20.345Z,64.63
2022-10-28T04:23:47.109Z,64.74
2022-10-28T04:26:15.356Z,64.85
2022-10-28T04:28:42.012Z,64.53
2022-10-28T04:31:10.063Z,64.43
2022-10-28T04:33:36.681Z,64.64
2022-10-28T04:36:03.353Z,64.94
2022-10-28T04:38:30.081Z,64.54
2022-10-28T04:40:56.771Z,64.71
2022-10-28T04:43:23.463Z,64.65
2022-10-28T04:45:50.099Z,64.12
2022-10-28T04:48:16.789Z,63.79
2022-10-28T04:50:43.525Z,64.06
2022-10-28T04:53:11.548Z,63.96
2022-10-28T04:55:38.392Z,64.76
2022-10-28T04:58:05.388Z,64.56
2022-10-28T05:00:32.363Z,64.90
2022-10-28T05:03:02.423Z,64.87
2022-10-28T05:05:29.215Z,64.66
2022-10-28T05:07:56.313Z,65.06
2022-10-28T05:10:23.124Z,64.66
2022-10-28T05:12:49.816Z,65.01
2022-10-28T05:15:16.986Z,64.90
2022-10-28T05:17:45.337Z,64.99
2022-10-28T05:20:13.134Z,64.58
2022-10-28T05:22:49.082Z,64.74
2022-10-28T05:25:16.837Z,64.54
2022-10-28T05:27:43.501Z,64.40
2022-10-28T05:30:10.976Z,64.40
2022-10-28T05:32:37.613Z,64.85
2022-10-28T05:35:04.566Z,64.71
2022-10-28T05:37:31.143Z,64.40
2022-10-28T05:39:58.023Z,64.55
2022-10-28T05:42:24.883Z,64.74
2022-10-28T05:44:51.654Z,64.54
2022-10-28T05:47:18.534Z,64.67
2022-10-28T05:49:45.041Z,64.68
2022-10-28T05:52:11.719Z,64.61
2022-10-28T05:54:38.356Z,64.72
2022-10-28T05:57:04.976Z,64.94
2022-10-28T05:59:31.612Z,64.48
2022-10-28T06:01:58.255Z,64.71
2022-10-28T06:04:25.067Z,64.14
2022-10-28T06:06:54.821Z,64.19
2022-10-28T06:09:21.317Z,64.50
2022-10-28T06:11:46.605Z,64.46
2022-10-28T06:14:13.161Z,64.62
2022-10-28T06:16:39.818Z,64.63
2022-10-28T06:19:06.425Z,64.20
2022-10-28T06:21:33.002Z,64.43
2022-10-28T06:23:59.729Z,64.26
2022-10-28T06:26:26.525Z,64.57
2022-10-28T06:28:53.055Z,64.40
2022-10-28T06:31:22.436Z,64.30
2022-10-28T06:33:49.004Z,64.16
2022-10-28T06:36:15.612Z,64.51
2022-10-28T06:38:42.842Z,64.20
2022-10-28T06:41:09.671Z,64.33
2022-10-28T06:43:36.432Z,64.32
2022-10-28T06:46:04.105Z,63.97
2022-10-28T06:48:32.872Z,64.15
2022-10-28T06:50:59.690Z,64.09
2022-10-28T06:53:26.497Z,64.17
2022-10-28T06:55:57.648Z,64.56
2022-10-28T06:58:25.694Z,64.25
2022-10-28T07:00:54.240Z,64.41
2022-10-28T07:03:20.926Z,64.13
2022-10-28T07:05:51.948Z,64.38
2022-10-28T07:08:18.818Z,64.63
2022-10-28T07:10:53.920Z,64.17
2022-10-28T07:13:20.741Z,63.98
2022-10-28T07:15:52.535Z,63.82
2022-10-28T07:18:19.748Z,63.88
2022-10-28T07:20:48.822Z,63.97
2022-10-28T07:23:16.033Z,64.93
2022-10-28T07:25:42.864Z,64.94
2022-10-28T07:28:10.001Z,64.62
2022-10-28T07:30:36.775Z,63.76
2022-10-28T07:33:05.198Z,64.18
2022-10-28T07:35:31.915Z,63.78
2022-10-28T07:37:58.950Z,63.74
2022-10-28T07:40:25.893Z,63.80
2022-10-28T07:42:53.004Z,63.65
2022-10-28T07:45:19.908Z,63.59
2022-10-28T07:47:46.414Z,63.64
2022-10-28T07:50:13.243Z,63.45
2022-10-28T07:52:40.641Z,63.36
2022-10-28T07:55:07.825Z,63.16
2022-10-28T07:57:35.245Z,63.42
2022-10-28T08:00:02.669Z,63.25
2022-10-28T08:02:37.632Z,63.39
2022-10-28T08:05:04.945Z,63.14
2022-10-28T08:07:34.816Z,63.08
2022-10-28T08:10:05.127Z,63.33
2022-10-28T08:12:31.696Z,63.61
2022-10-28T08:14:58.327Z,63.00
2022-10-28T08:17:25.106Z,63.25
2022-10-28T08:19:51.920Z,63.09
2022-10-28T08:22:18.962Z,63.09
2022-10-28T08:24:45.568Z,62.95
2022-10-28T08:27:12.387Z,63.19
2022-10-28T08:29:38.933Z,63.21
2022-10-28T08:32:08.509Z,62.98
2022-10-28T08:34:37.983Z,63.13
2022-10-28T08:37:07.850Z,63.08
2022-10-28T08:39:34.487Z,63.30
2022-10-28T08:42:30.312Z,63.45
2022-10-28T08:45:16.156Z,62.58
2022-10-28T08:47:55.726Z,62.69
2022-10-28T08:50:26.732Z,62.78
2022-10-28T08:53:02.897Z,62.52
2022-10-28T08:55:40.853Z,62.62
2022-10-28T08:58:23.810Z,62.72
2022-10-28T09:03:44.244Z,62.55
2022-10-28T09:06:11.276Z,62.83
2022-10-28T09:08:42.281Z,62.61
2022-10-28T09:11:14.624Z,62.82
2022-10-28T09:13:44.016Z,62.75
2022-10-28T09:16:16.644Z,62.22
2022-10-28T09:19:01.652Z,62.53
2022-10-28T09:21:46.952Z,62.64
2022-10-28T09:24:38.437Z,62.35
2022-10-28T09:27:05.017Z,62.63
2022-10-28T09:30:09.228Z,62.60
2022-10-28T09:32:59.899Z,62.61
2022-10-28T09:35:32.220Z,62.63
2022-10-28T09:38:14.355Z,62.29
2022-10-28T09:40:45.279Z,62.37
2022-10-28T09:46:14.021Z,62.44
2022-10-28T09:48:54.943Z,62.60
2022-10-28T09:51:34.703Z,62.70
2022-10-28T09:54:04.292Z,62.73
2022-10-28T09:56:31.283Z,62.86
2022-10-28T09:59:00.991Z,62.63
2022-10-28T10:01:32.500Z,62.78
2022-10-28T10:03:59.598Z,62.68
2022-10-28T10:06:35.383Z,62.53
2022-10-28T10:09:02.816Z,62.63
2022-10-28T10:11:36.345Z,62.93
2022-10-28T10:14:10.412Z,62.71
2022-10-28T10:16:45.571Z,62.74
2022-10-28T10:19:12.491Z,62.88
2022-10-28T10:21:49.721Z,62.92
2022-10-28T10:24:30.119Z,62.98
2022-10-28T10:26:59.773Z,62.95
2022-10-28T10:29:47.361Z,62.26
2022-10-28T10:32:17.112Z,62.35
2022-10-28T10:34:52.037Z,62.35
2022-10-28T10:37:21.665Z,62.61
2022-10-28T10:40:06.969Z,62.31
2022-10-28T10:42:39.150Z,62.08
2022-10-28T10:45:16.338Z,62.32
2022-10-28T10:47:42.948Z,62.53
2022-10-28T10:53:00.642Z,62.47
2022-10-28T10:55:36.359Z,62.43
2022-10-28T10:58:05.464Z,62.60
2022-10-28T11:00:35.488Z,61.82
2022-10-28T11:03:04.580Z,62.01
2022-10-28T11:05:35.734Z,61.75
2022-10-28T11:08:04.996Z,62.06
2022-10-28T11:10:34.395Z,61.87
2022-10-28T11:13:06.235Z,61.89
2022-10-28T11:15:33.119Z,61.73
2022-10-28T11:18:16.839Z,61.89
2022-10-28T11:20:47.024Z,61.78
2022-10-28T11:23:31.194Z,62.18
2022-10-28T11:26:11.103Z,61.71
2022-10-28T11:28:58.844Z,61.88
2022-10-28T11:32:03.073Z,61.92
2022-10-28T11:34:57.420Z,63.06
2022-10-28T11:37:54.772Z,63.78
2022-10-28T11:40:27.670Z,62.89
2022-10-28T11:43:21.569Z,62.46
2022-10-28T11:46:06.093Z,62.37
2022-10-28T11:48:51.219Z,62.50
2022-10-28T11:51:31.097Z,62.21
2022-10-28T11:54:23.047Z,62.27
2022-10-28T11:57:08.998Z,62.06
2022-10-28T11:59:47.380Z,62.22
2022-10-28T12:02:35.140Z,61.83
2022-10-28T12:05:25.591Z,61.68
2022-10-28T12:08:06.944Z,61.68
2022-10-28T12:11:05.960Z,61.62
2022-10-28T12:13:44.495Z,62.01
2022-10-28T12:16:35.464Z,61.86
2022-10-28T12:19:15.738Z,61.64
2022-10-28T12:21:46.142Z,61.49
2022-10-28T12:24:20.199Z,61.52
2022-10-28T12:26:58.309Z,61.93
2022-10-28T12:29:33.619Z,61.52
2022-10-28T12:32:22.892Z,61.63
2022-10-28T12:34:55.603Z,61.57
2022-10-28T12:37:26.844Z,61.28
2022-10-28T12:39:53.326Z,61.49
2022-10-28T12:42:25.703Z,61.39
2022-10-28T12:44:57.159Z,61.74
2022-10-28T12:47:49.988Z,61.64
2022-10-28T12:50:40.157Z,61.61
2022-10-28T12:53:41.597Z,62.02
2022-10-28T12:56:24.617Z,61.83
2022-10-28T13:01:37.045Z,62.12
2022-10-28T13:04:04.353Z,62.01
2022-10-28T13:07:15.444Z,61.81
2022-10-28T13:09:57.300Z,62.23
2022-10-28T13:13:00.316Z,61.85
2022-10-28T13:15:55.975Z,62.02
2022-10-28T13:18:37.523Z,62.28
2022-10-28T13:21:19.097Z,62.18
2022-10-28T13:24:16.142Z,62.29
2022-10-28T13:26:45.287Z,62.74
2022-10-28T13:29:31.359Z,62.70
2022-10-28T13:31:58.432Z,61.83
2022-10-28T13:34:37.937Z,61.76
2022-10-28T13:37:15.931Z,61.80
2022-10-28T13:39:44.865Z,61.60
2022-10-28T13:42:23.416Z,61.48
2022-10-28T13:44:55.670Z,61.73
2022-10-28T13:47:25.428Z,61.88
2022-10-28T13:50:10.039Z,61.72
2022-10-28T13:52:41.458Z,61.89
2022-10-28T13:55:26.500Z,61.60
2022-10-28T13:58:03.296Z,61.62
2022-10-28T14:00:29.928Z,61.85
2022-10-28T14:03:05.576Z,62.02
2022-10-28T14:05:32.494Z,61.61
2022-10-28T14:08:01.712Z,61.39
2022-10-28T14:10:31.594Z,61.79
2022-10-28T14:13:19.905Z,61.56
2022-10-28T14:15:50.463Z,61.67
2022-10-28T14:18:42.090Z,61.50
2022-10-28T14:21:06.619Z,61.81
2022-10-28T14:23:33.103Z,62.19
2022-10-28T14:26:04.523Z,62.03
2022-10-28T14:28:31.141Z,62.07
2022-10-28T14:31:09.941Z,62.28
2022-10-28T14:33:42.110Z,62.32
2022-10-28T14:36:08.765Z,62.37
2022-10-28T14:39:13.872Z,62.07
2022-10-28T14:41:43.382Z,62.18
2022-10-28T14:44:47.787Z,62.51
2022-10-28T14:47:38.957Z,63.31
2022-10-28T14:50:14.390Z,64.37
2022-10-28T14:52:42.855Z,62.97
2022-10-28T14:55:22.825Z,62.18
2022-10-28T14:57:49.759Z,62.38
2022-10-28T15:00:21.802Z,62.46
2022-10-28T15:02:48.511Z,62.68
2022-10-28T15:05:20.257Z,62.94
2022-10-28T15:07:47.859Z,62.80
2022-10-28T15:10:20.303Z,62.82
2022-10-28T15:12:49.031Z,63.03
2022-10-28T15:15:21.902Z,62.79
2022-10-28T15:17:49.430Z,62.72
2022-10-28T15:20:28.602Z,62.97
2022-10-28T15:23:10.747Z,63.23
2022-10-28T15:25:37.315Z,62.83
2022-10-28T15:28:04.190Z,63.10
2022-10-28T15:30:31.084Z,62.93
2022-10-28T15:33:19.461Z,62.86
2022-10-28T15:35:47.084Z,62.86
2022-10-28T15:38:28.917Z,62.95
2022-10-28T15:40:55.859Z,63.07
2022-10-28T15:43:28.103Z,62.88
2022-10-28T15:46:07.606Z,63.04
2022-10-28T15:48:34.485Z,63.09
2022-10-28T15:51:16.093Z,63.20
2022-10-28T15:53:44.403Z,63.16
2022-10-28T15:56:13.728Z,63.05
2022-10-28T15:58:44.982Z,62.78
2022-10-28T16:01:38.116Z,62.77
2022-10-28T16:04:07.232Z,63.00
2022-10-28T16:06:36.846Z,63.50
2022-10-28T16:09:14.247Z,63.28
2022-10-28T16:11:44.136Z,63.25
2022-10-28T16:14:39.058Z,63.01
2022-10-28T16:19:41.276Z,63.21
2022-10-28T16:22:13.168Z,63.46
2022-10-28T16:24:40.639Z,63.50
2022-10-28T16:27:36.267Z,63.60
2022-10-28T16:30:03.053Z,63.36
2022-10-28T16:32:46.279Z,63.59
2022-10-28T16:35:14.238Z,63.34
2022-10-28T16:37:44.786Z,63.44
2022-10-28T16:40:37.687Z,63.71
2022-10-28T16:43:01.571Z,63.65
2022-10-28T16:45:28.384Z,63.46
2022-10-28T16:47:55.429Z,64.13
2022-10-28T16:50:22.727Z,65.15
2022-10-28T16:52:49.536Z,63.93
2022-10-28T16:55:17.275Z,63.33
2022-10-28T16:57:43.824Z,63.43
2022-10-28T17:00:13.798Z,63.36
2022-10-28T17:02:41.587Z,63.34
2022-10-28T17:05:34.692Z,63.41
2022-10-28T17:08:04.557Z,62.99
2022-10-28T17:10:35.473Z,62.57
2022-10-28T17:13:03.091Z,62.66
2022-10-28T17:15:29.748Z,62.58
2022-10-28T17:17:57.901Z,62.42
2022-10-28T17:20:24.678Z,62.55
2022-10-28T17:22:51.347Z,62.62
2022-10-28T17:25:18.677Z,62.82
2022-10-28T17:27:48.906Z,62.96
2022-10-28T17:30:17.418Z,62.86
2022-10-28T17:32:45.442Z,62.98
2022-10-28T17:35:12.432Z,63.24
2022-10-28T17:37:38.991Z,63.00
2022-10-28T17:40:06.476Z,63.20
2022-10-28T17:42:33.112Z,63.09
2022-10-28T17:44:59.734Z,63.38
2022-10-28T17:47:26.848Z,63.36
2022-10-28T17:49:53.461Z,63.11
2022-10-28T17:52:22.971Z,63.33
2022-10-28T17:54:50.494Z,63.35
2022-10-28T17:57:17.184Z,63.21
2022-10-28T17:59:45.482Z,63.35
2022-10-28T18:02:13.453Z,63.06
2022-10-28T18:04:41.163Z,63.03
2022-10-28T18:07:08.365Z,63.18
2022-10-28T18:09:34.944Z,63.40
2022-10-28T18:12:06.656Z,63.41
2022-10-28T18:14:33.496Z,63.22
2022-10-28T18:17:00.318Z,63.26
2022-10-28T18:19:27.121Z,63.55
2022-10-28T18:21:53.783Z,63.07
2022-10-28T18:24:23.343Z,63.30
2022-10-28T18:26:54.062Z,63.14
2022-10-28T18:29:20.704Z,63.27
2022-10-28T18:31:47.253Z,63.30
2022-10-28T18:34:14.006Z,63.24
2022-10-28T18:36:40.626Z,63.18
2022-10-28T18:39:08.430Z,63.23
2022-10-28T18:41:41.574Z,63.17
2022-10-28T18:44:14.101Z,63.24
2022-10-28T18:46:41.029Z,63.37
2022-10-28T18:49:07.679Z,62.86
2022-10-28T18:51:34.732Z,63.28
2022-10-28T18:54:01.661Z,63.04
2022-10-28T18:56:34.258Z,63.42
2022-10-28T18:59:03.324Z,63.08
2022-10-28T19:01:31.659Z,63.50
2022-10-28T19:04:04.126Z,63.29
2022-10-28T19:06:33.178Z,63.31
2022-10-28T19:09:04.608Z,63.48
2022-10-28T19:11:33.349Z,63.29
2022-10-28T19:14:05.087Z,63.02
2022-10-28T19:16:33.780Z,63.06
2022-10-28T19:19:01.664Z,63.11
2022-10-28T19:21:28.742Z,63.29
2022-10-28T19:23:55.759Z,62.92
2022-10-28T19:26:23.115Z,62.85
2022-10-28T19:28:50.641Z,63.20
2022-10-28T19:31:23.036Z,62.88
2022-10-28T19:33:51.340Z,63.29
2022-10-28T19:36:19.479Z,63.23
2022-10-28T19:38:47.503Z,63.11
2022-10-28T19:41:19.124Z,63.14
2022-10-28T19:43:46.392Z,62.97
2022-10-28T19:46:15.665Z,63.03
2022-10-28T19:48:43.289Z,63.09
2022-10-28T19:51:13.812Z,63.05
2022-10-28T19:53:40.433Z,63.22
2022-10-28T19:56:07.359Z,63.78
2022-10-28T19:58:34.869Z,63.41
2022-10-28T20:01:06.890Z,63.10
2022-10-28T20:03:35.149Z,63.27
2022-10-28T20:06:11.356Z,63.09
2022-10-28T20:08:40.175Z,62.54
2022-10-28T20:11:09.077Z,62.74
2022-10-28T20:13:36.280Z,62.81
2022-10-28T20:16:10.586Z,62.91
2022-10-28T20:18:37.879Z,62.61
2022-10-28T20:21:07.478Z,62.76
2022-10-28T20:23:35.808Z,62.90
2022-10-28T20:26:04.212Z,62.79
2022-10-28T20:28:31.559Z,62.61
2022-10-28T20:31:00.422Z,62.69
2022-10-28T20:33:28.191Z,62.70
2022-10-28T20:35:55.676Z,62.71
2022-10-28T20:38:23.402Z,62.61
2022-10-28T20:40:51.406Z,62.48
2022-10-28T20:43:20.832Z,62.41
2022-10-28T20:45:59.663Z,62.54
2022-10-28T20:48:28.405Z,62.31
2022-10-28T20:50:57.296Z,62.25
2022-10-28T20:53:25.648Z,62.83
2022-10-28T20:55:55.053Z,62.73
2022-10-28T20:58:24.135Z,62.89
2022-10-28T21:00:53.049Z,62.77
2022-10-28T21:03:21.051Z,62.46
2022-10-28T21:05:48.298Z,62.54
2022-10-28T21:08:14.924Z,62.87
2022-10-28T21:10:41.620Z,62.81
2022-10-28T21:13:08.238Z,62.95
2022-10-28T21:15:37.732Z,62.85
2022-10-28T21:18:06.408Z,62.67
2022-10-28T21:20:35.617Z,63.00
2022-10-28T21:23:02.496Z,62.86
2022-10-28T21:25:29.323Z,62.70
2022-10-28T21:27:57.563Z,62.44
2022-10-28T21:30:24.693Z,62.30
2022-10-28T21:32:51.416Z,62.84
2022-10-28T21:35:21.250Z,62.55
2022-10-28T21:37:48.019Z,62.84
2022-10-28T21:40:14.804Z,63.29
2022-10-28T21:42:41.802Z,63.38
2022-10-28T21:45:11.023Z,63.18
2022-10-28T21:47:37.497Z,63.50
2022-10-28T21:50:04.498Z,63.20
2022-10-28T21:52:31.277Z,63.36
2022-10-28T21:54:57.991Z,63.40
2022-10-28T21:57:30.712Z,63.53
2022-10-28T21:59:57.305Z,63.97
2022-10-28T22:02:24.049Z,63.90
2022-10-28T22:04:50.721Z,64.09
2022-10-28T22:07:17.315Z,64.23
2022-10-28T22:09:44.323Z,64.30
2022-10-28T22:12:13.965Z,64.17
2022-10-28T22:14:40.669Z,64.21
2022-10-28T22:17:07.768Z,64.33
2022-10-28T22:19:34.416Z,64.42
2022-10-28T22:22:01.015Z,64.47
2022-10-28T22:24:27.684Z,64.27
2022-10-28T22:26:54.349Z,64.26
2022-10-28T22:29:21.237Z,64.30
2022-10-28T22:31:48.113Z,64.57
2022-10-28T22:34:14.916Z,64.54
2022-10-28T22:36:43.209Z,64.55
2022-10-28T22:39:10.007Z,64.61
2022-10-28T22:41:36.675Z,64.53
2022-10-28T22:44:04.669Z,64.55
2022-10-28T22:46:33.766Z,64.41
2022-10-28T22:49:00.417Z,64.77
2022-10-28T22:51:26.963Z,64.56
2022-10-28T22:53:53.599Z,64.96
2022-10-28T22:56:22.923Z,64.83
2022-10-28T22:58:54.149Z,64.88
2022-10-28T23:01:22.217Z,64.74
2022-10-28T23:03:51.075Z,64.84
2022-10-28T23:06:20.706Z,64.69
2022-10-28T23:08:47.962Z,65.01
2022-10-28T23:11:16.390Z,64.68
2022-10-28T23:13:43.042Z,64.48
2022-10-28T23:16:14.342Z,64.67
2022-10-28T23:18:42.594Z,65.05
2022-10-28T23:21:18.369Z,64.97
2022-10-28T23:23:51.338Z,64.89
2022-10-28T23:26:20.651Z,64.85
2022-10-28T23:28:51.814Z,64.64
2022-10-28T23:31:18.872Z,64.81
2022-10-28T23:33:45.468Z,64.75
2022-10-28T23:36:14.429Z,64.83
2022-10-28T23:38:41.689Z,64.79
2022-10-28T23:41:11.588Z,64.55
2022-10-28T23:43:38.257Z,64.93
2022-10-28T23:46:05.164Z,64.91
2022-10-28T23:48:31.885Z,64.75
2022-10-28T23:50:58.770Z,64.71
2022-10-28T23:53:25.873Z,64.70
2022-10-28T23:55:52.788Z,64.87
2022-10-28T23:58:21.643Z,64.68
